Time;durP1;ratioP1;P1;durP2;ratioP2;P2;SDS_P1;SDS_P2;PMS_P1;PMS_P2;Temp;Humidity;BMP_temperature;BMP_pressure;BME280_temperature;BME280_humidity;BME280_pressure;Samples;Min_cycle;Max_cycle;Signal;HPM_P1;HPM_P2
2023/07/24 00:01:59;;;;;;;0.70;0.40;;;18.00;99.90;;;;;;4972366;28;20108;-87
2023/07/24 00:04:25;;;;;;;1.30;0.50;;;18.00;99.90;;;;;;4983743;28;20034;-88
2023/07/24 00:06:50;;;;;;;1.30;0.50;;;18.10;99.90;;;;;;4968274;28;20046;-89
2023/07/24 00:09:16;;;;;;;1.10;0.43;;;18.10;99.90;;;;;;4974642;28;20042;-84
2023/07/24 00:11:42;;;;;;;1.08;0.50;;;18.10;99.90;;;;;;4967909;28;20435;-85
2023/07/24 00:14:07;;;;;;;0.70;0.30;;;18.10;99.90;;;;;;4977801;28;20042;-80
2023/07/24 00:16:33;;;;;;;0.85;0.40;;;18.10;99.90;;;;;;4965925;28;20399;-87
2023/07/24 00:18:59;;;;;;;1.45;0.40;;;18.10;99.90;;;;;;4972627;28;20039;-88
2023/07/24 00:21:25;;;;;;;1.10;0.40;;;18.10;99.90;;;;;;4982086;28;20042;-87
2023/07/24 00:23:50;;;;;;;0.60;0.30;;;18.00;99.90;;;;;;4984461;28;20034;-86
2023/07/24 00:26:16;;;;;;;2.60;0.40;;;18.00;99.90;;;;;;4954676;28;20058;-86
2023/07/24 00:28:42;;;;;;;1.63;0.35;;;18.10;99.90;;;;;;4970066;28;20045;-84
2023/07/24 00:31:07;;;;;;;1.42;0.40;;;18.00;99.90;;;;;;4973618;28;20038;-83
2023/07/24 00:33:33;;;;;;;0.90;0.40;;;18.00;99.90;;;;;;4970766;28;20121;-87
2023/07/24 00:35:59;;;;;;;1.70;0.50;;;18.00;99.90;;;;;;4967758;28;20043;-82
2023/07/24 00:38:25;;;;;;;1.30;0.50;;;18.00;99.90;;;;;;4960034;28;20054;-85
2023/07/24 00:40:50;;;;;;;1.27;0.50;;;18.00;99.90;;;;;;4969092;28;20478;-85
2023/07/24 00:43:17;;;;;;;1.00;0.40;;;18.00;99.90;;;;;;4974464;28;20081;-83
2023/07/24 00:45:44;;;;;;;1.10;0.40;;;18.00;99.90;;;;;;4973833;28;20055;-87
2023/07/24 00:48:10;;;;;;;1.25;0.50;;;18.00;99.90;;;;;;4973676;28;20038;-79
2023/07/24 00:50:39;;;;;;;0.77;0.40;;;18.00;99.90;;;;;;4975180;28;20038;-88
2023/07/24 00:53:05;;;;;;;0.70;0.30;;;18.10;99.90;;;;;;4970489;28;20057;-82
2023/07/24 00:55:31;;;;;;;1.35;0.40;;;18.10;99.90;;;;;;4974332;28;20042;-85
2023/07/24 00:58:01;;;;;;;1.10;0.40;;;18.10;99.90;;;;;;4973263;28;20035;-84
2023/07/24 01:00:27;;;;;;;0.80;0.30;;;18.10;99.90;;;;;;4974725;28;20030;-84
2023/07/24 01:02:54;;;;;;;0.95;0.40;;;18.10;99.90;;;;;;4973277;28;20035;-86
2023/07/24 01:05:20;;;;;;;1.10;0.50;;;18.20;99.90;;;;;;4980404;28;20046;-89
2023/07/24 01:07:46;;;;;;;1.20;0.40;;;18.10;99.90;;;;;;4954504;28;20039;-82
2023/07/24 01:10:12;;;;;;;0.90;0.40;;;18.10;99.90;;;;;;4986076;28;20050;-85
2023/07/24 01:13:03;;;;;;;1.38;0.50;;;18.10;99.90;;;;;;4974445;28;20062;-83
2023/07/24 01:15:37;;;;;;;1.70;0.47;;;18.20;99.90;;;;;;4974848;28;20188;-87
2023/07/24 01:18:09;;;;;;;0.80;0.40;;;18.10;99.90;;;;;;4969267;28;20043;-86
2023/07/24 01:20:37;;;;;;;1.38;0.50;;;18.20;99.90;;;;;;4955423;28;20038;-86
2023/07/24 01:23:15;;;;;;;1.30;0.40;;;18.20;99.90;;;;;;4970494;28;20443;-88
2023/07/24 01:25:57;;;;;;;1.15;0.47;;;18.20;99.90;;;;;;4956081;28;20042;-87
2023/07/24 01:28:23;;;;;;;1.42;0.40;;;18.20;99.90;;;;;;4968242;28;20039;-86
2023/07/24 01:30:48;;;;;;;1.40;0.50;;;18.20;99.90;;;;;;4951778;28;20042;-87
2023/07/24 01:33:14;;;;;;;1.20;0.50;;;18.20;99.90;;;;;;4957882;28;20483;-81
2023/07/24 01:35:45;;;;;;;1.50;0.50;;;18.20;99.90;;;;;;4969887;28;20588;-87
2023/07/24 01:38:13;;;;;;;1.10;0.40;;;18.10;99.90;;;;;;4957362;28;20043;-86
2023/07/24 01:40:40;;;;;;;1.20;0.60;;;18.20;99.90;;;;;;4972741;28;20113;-85
2023/07/24 01:43:06;;;;;;;1.60;0.40;;;18.20;99.90;;;;;;4972824;28;20074;-87
2023/07/24 01:45:32;;;;;;;0.90;0.40;;;18.10;99.90;;;;;;4971691;28;20070;-87
2023/07/24 01:47:59;;;;;;;1.20;0.50;;;18.10;99.90;;;;;;4988312;28;20427;-88
2023/07/24 01:50:26;;;;;;;1.00;0.43;;;18.10;99.90;;;;;;4988383;28;20043;-85
2023/07/24 01:52:52;;;;;;;2.03;0.60;;;18.10;99.90;;;;;;4954952;28;20139;-88
2023/07/24 01:55:17;;;;;;;1.25;0.50;;;18.10;99.90;;;;;;4957159;28;20038;-82
2023/07/24 01:57:43;;;;;;;1.27;0.60;;;18.10;99.90;;;;;;4957504;28;20500;-87
2023/07/24 02:00:10;;;;;;;1.20;0.50;;;18.10;99.90;;;;;;4955586;28;20043;-84
2023/07/24 02:02:36;;;;;;;1.23;0.60;;;18.10;99.90;;;;;;4973566;28;20402;-85
2023/07/24 02:05:01;;;;;;;1.30;0.57;;;18.00;99.90;;;;;;4957362;28;20048;-84
2023/07/24 02:07:28;;;;;;;1.33;0.50;;;18.00;99.90;;;;;;4987304;28;20118;-88
2023/07/24 02:09:53;;;;;;;2.22;0.50;;;18.00;99.90;;;;;;4970199;28;20160;-86
2023/07/24 02:12:19;;;;;;;1.13;0.52;;;18.00;99.90;;;;;;4969269;28;20101;-88
2023/07/24 02:14:48;;;;;;;1.58;0.70;;;18.00;99.90;;;;;;4979956;28;20031;-81
2023/07/24 02:17:13;;;;;;;1.10;0.50;;;18.00;99.90;;;;;;4973552;28;20039;-88
2023/07/24 02:19:39;;;;;;;1.85;0.50;;;18.00;99.90;;;;;;4964477;28;20403;-87
2023/07/24 02:22:05;;;;;;;1.85;0.80;;;18.00;99.90;;;;;;4973843;28;20129;-87
2023/07/24 02:24:34;;;;;;;1.30;0.60;;;18.10;99.90;;;;;;4972926;28;20402;-80
2023/07/24 02:27:00;;;;;;;1.23;0.47;;;18.00;99.90;;;;;;4988675;28;20074;-86
2023/07/24 02:29:26;;;;;;;1.95;0.60;;;18.00;99.90;;;;;;4987154;28;20069;-87
2023/07/24 02:31:53;;;;;;;1.33;0.55;;;18.00;99.90;;;;;;4970610;28;20050;-87
2023/07/24 02:34:24;;;;;;;1.30;0.50;;;18.00;99.90;;;;;;4986419;28;20037;-84
2023/07/24 02:36:50;;;;;;;1.20;0.40;;;18.00;99.90;;;;;;4955049;28;20034;-81
2023/07/24 02:39:16;;;;;;;1.30;0.55;;;18.00;99.90;;;;;;4972275;28;20092;-81
2023/07/24 02:41:42;;;;;;;2.33;0.50;;;18.00;99.90;;;;;;4956108;28;20125;-86
2023/07/24 02:44:07;;;;;;;1.60;0.70;;;18.10;99.90;;;;;;4954144;28;20042;-80
2023/07/24 02:46:33;;;;;;;3.45;0.98;;;18.10;99.90;;;;;;4986459;28;20453;-86
2023/07/24 02:48:59;;;;;;;1.40;0.70;;;18.00;99.90;;;;;;4963907;28;20118;-85
2023/07/24 02:51:25;;;;;;;2.70;0.88;;;18.00;99.90;;;;;;4967348;28;20122;-85
2023/07/24 02:53:50;;;;;;;2.58;0.80;;;18.00;99.90;;;;;;4972120;28;20084;-85
2023/07/24 02:56:16;;;;;;;1.90;0.70;;;18.00;99.90;;;;;;4989700;28;20041;-86
2023/07/24 02:58:42;;;;;;;1.30;0.60;;;17.90;99.90;;;;;;4970521;28;20061;-85
2023/07/24 03:01:08;;;;;;;2.80;0.63;;;18.00;99.90;;;;;;4969874;28;20038;-84
2023/07/24 03:03:34;;;;;;;2.83;0.80;;;17.90;99.90;;;;;;4984882;28;20126;-87
2023/07/24 03:06:00;;;;;;;2.53;1.17;;;18.00;99.90;;;;;;4970721;28;20136;-86
2023/07/24 03:08:26;;;;;;;1.67;0.80;;;17.90;99.90;;;;;;4956197;28;20571;-87
2023/07/24 03:10:52;;;;;;;1.45;0.57;;;17.90;99.90;;;;;;4985752;28;20125;-87
2023/07/24 03:13:17;;;;;;;3.30;0.63;;;17.90;99.90;;;;;;4971577;28;20486;-83
2023/07/24 03:15:43;;;;;;;1.40;0.60;;;17.90;99.90;;;;;;4958391;28;20035;-86
2023/07/24 03:18:09;;;;;;;1.60;0.57;;;17.90;99.90;;;;;;4972157;28;20035;-83
2023/07/24 03:20:34;;;;;;;2.53;0.65;;;18.00;99.90;;;;;;4968813;28;20065;-85
2023/07/24 03:23:00;;;;;;;1.60;0.60;;;17.90;99.90;;;;;;4962420;28;20053;-87
2023/07/24 03:25:26;;;;;;;2.42;0.60;;;18.00;99.90;;;;;;4984554;28;20428;-82
2023/07/24 03:27:51;;;;;;;1.67;0.68;;;18.00;99.90;;;;;;4971151;28;20138;-87
2023/07/24 03:30:17;;;;;;;1.48;0.60;;;17.90;99.90;;;;;;4949997;28;20042;-86
2023/07/24 03:32:43;;;;;;;1.35;0.57;;;17.90;99.90;;;;;;4951931;28;20034;-86
2023/07/24 03:35:09;;;;;;;1.67;0.57;;;18.00;99.90;;;;;;4955493;28;20040;-82
2023/07/24 03:37:38;;;;;;;2.00;0.60;;;17.90;99.90;;;;;;4965867;28;20065;-87
2023/07/24 03:40:04;;;;;;;1.73;0.70;;;17.90;99.90;;;;;;4955908;28;20519;-86
2023/07/24 03:42:31;;;;;;;2.28;0.70;;;17.90;99.90;;;;;;4971379;28;20057;-87
2023/07/24 03:44:57;;;;;;;2.63;0.50;;;17.90;99.90;;;;;;4953919;28;20034;-85
2023/07/24 03:47:24;;;;;;;1.30;0.50;;;17.90;99.90;;;;;;4952558;28;20045;-84
2023/07/24 03:49:50;;;;;;;1.50;0.50;;;17.90;99.90;;;;;;4983673;28;20512;-86
2023/07/24 03:52:16;;;;;;;1.65;0.70;;;17.90;99.90;;;;;;4954329;28;20145;-83
2023/07/24 03:54:41;;;;;;;1.73;0.50;;;17.80;99.90;;;;;;4971208;28;20113;-82
2023/07/24 03:57:07;;;;;;;2.53;1.10;;;17.90;99.90;;;;;;4977626;28;20038;-83
2023/07/24 03:59:33;;;;;;;1.70;0.82;;;17.80;99.90;;;;;;4976659;28;20034;-83
2023/07/24 04:01:59;;;;;;;1.60;0.70;;;17.80;99.90;;;;;;4951224;28;20035;-81
2023/07/24 04:04:25;;;;;;;1.90;0.65;;;17.70;99.90;;;;;;4985590;28;20442;-85
2023/07/24 04:06:51;;;;;;;1.23;0.52;;;17.70;99.90;;;;;;4967778;28;20125;-82
2023/07/24 04:09:16;;;;;;;1.00;0.45;;;17.70;99.90;;;;;;4969774;28;20113;-85
2023/07/24 04:11:45;;;;;;;1.40;0.50;;;17.70;99.90;;;;;;4953628;28;20058;-82
2023/07/24 04:14:11;;;;;;;1.20;0.40;;;17.70;99.90;;;;;;4967457;28;20069;-82
2023/07/24 04:16:37;;;;;;;0.90;0.30;;;17.70;99.90;;;;;;4952933;28;20042;-85
2023/07/24 04:19:03;;;;;;;2.55;0.60;;;17.70;99.90;;;;;;4966902;28;20035;-81
2023/07/24 04:21:29;;;;;;;1.70;0.70;;;17.60;99.90;;;;;;4954488;28;20129;-84
2023/07/24 04:23:54;;;;;;;1.15;0.60;;;17.50;99.90;;;;;;4949745;28;20129;-84
2023/07/24 04:26:20;;;;;;;1.08;0.50;;;17.40;99.90;;;;;;4985304;28;20041;-81
2023/07/24 04:28:46;;;;;;;1.75;0.60;;;17.30;99.90;;;;;;4970700;28;20376;-83
2023/07/24 04:31:12;;;;;;;1.17;0.50;;;17.20;99.90;;;;;;4971168;28;20046;-83
2023/07/24 04:33:38;;;;;;;2.95;0.70;;;17.10;99.90;;;;;;4967102;28;20043;-78
2023/07/24 04:36:04;;;;;;;1.63;0.60;;;17.20;99.90;;;;;;4968852;28;20073;-78
2023/07/24 04:38:30;;;;;;;2.33;0.70;;;17.10;99.90;;;;;;4984394;28;20471;-82
2023/07/24 04:40:56;;;;;;;2.85;0.80;;;17.10;99.90;;;;;;4977654;28;20125;-84
2023/07/24 04:43:21;;;;;;;1.30;0.60;;;17.10;99.90;;;;;;4951826;28;20042;-81
2023/07/24 04:45:47;;;;;;;2.15;0.70;;;17.10;99.90;;;;;;4956667;28;20049;-81
2023/07/24 04:48:13;;;;;;;1.40;0.47;;;17.10;99.90;;;;;;4953072;28;20106;-85
2023/07/24 04:50:38;;;;;;;1.20;0.43;;;17.20;99.90;;;;;;4973040;28;20475;-84
2023/07/24 04:53:04;;;;;;;1.13;0.40;;;17.20;99.90;;;;;;4950065;28;20034;-80
2023/07/24 04:55:30;;;;;;;1.10;0.40;;;17.20;99.90;;;;;;4968906;28;20420;-82
2023/07/24 04:57:55;;;;;;;1.17;0.47;;;17.20;99.90;;;;;;4953033;28;20065;-84
2023/07/24 05:00:21;;;;;;;1.30;0.50;;;17.20;99.90;;;;;;4950801;28;20031;-83
2023/07/24 05:02:47;;;;;;;1.10;0.40;;;17.20;99.90;;;;;;4950897;28;20479;-85
2023/07/24 05:05:12;;;;;;;1.40;0.60;;;17.30;99.90;;;;;;4963039;28;20073;-80
2023/07/24 05:07:38;;;;;;;1.60;0.60;;;17.20;99.90;;;;;;4954945;28;20046;-84
2023/07/24 05:10:04;;;;;;;1.60;0.50;;;17.30;99.90;;;;;;4970531;28;20034;-80
2023/07/24 05:12:30;;;;;;;2.28;0.60;;;17.30;99.90;;;;;;4966509;28;20054;-84
2023/07/24 05:14:56;;;;;;;2.08;0.55;;;17.30;99.90;;;;;;4983824;28;20037;-83
2023/07/24 05:17:21;;;;;;;2.03;0.70;;;17.20;99.90;;;;;;4970050;28;20061;-85
2023/07/24 05:19:47;;;;;;;1.42;0.60;;;17.20;99.90;;;;;;4952165;28;20034;-84
2023/07/24 05:22:13;;;;;;;1.83;0.60;;;17.20;99.90;;;;;;4950981;28;20039;-83
2023/07/24 05:24:38;;;;;;;1.48;0.50;;;17.20;99.90;;;;;;4969019;28;20113;-84
2023/07/24 05:27:05;;;;;;;1.98;0.60;;;17.20;99.90;;;;;;4985917;28;20371;-82
2023/07/24 05:29:31;;;;;;;1.60;0.50;;;17.20;99.90;;;;;;4968888;28;20169;-85
2023/07/24 05:31:57;;;;;;;3.75;0.55;;;17.20;99.90;;;;;;4973562;28;20497;-85
2023/07/24 05:34:23;;;;;;;2.67;0.82;;;17.20;99.90;;;;;;4988006;28;20076;-82
2023/07/24 05:36:48;;;;;;;2.17;0.75;;;17.20;99.90;;;;;;4989071;28;20067;-85
2023/07/24 05:39:14;;;;;;;1.80;0.60;;;17.20;99.90;;;;;;4988536;28;20046;-86
2023/07/24 05:41:40;;;;;;;1.63;0.60;;;17.20;99.90;;;;;;4973965;28;20430;-82
2023/07/24 05:44:05;;;;;;;1.58;0.60;;;17.20;99.90;;;;;;4970102;28;20035;-85
2023/07/24 05:46:31;;;;;;;1.77;0.70;;;17.20;99.90;;;;;;4986652;28;20077;-82
2023/07/24 05:48:57;;;;;;;1.80;0.75;;;17.20;99.90;;;;;;4968973;28;20190;-84
2023/07/24 05:51:23;;;;;;;2.88;1.20;;;17.20;99.90;;;;;;4953595;28;20034;-82
2023/07/24 05:53:49;;;;;;;2.05;0.80;;;17.10;99.90;;;;;;4968546;28;20181;-84
2023/07/24 05:56:14;;;;;;;2.25;0.80;;;17.20;99.90;;;;;;4987624;28;20046;-85
2023/07/24 05:58:40;;;;;;;2.67;0.70;;;17.10;99.90;;;;;;4989824;28;20027;-84
2023/07/24 06:01:09;;;;;;;1.67;0.85;;;17.20;99.90;;;;;;4972275;28;20045;-81
2023/07/24 06:03:35;;;;;;;2.28;0.80;;;17.20;99.90;;;;;;4987084;28;20065;-86
2023/07/24 06:06:01;;;;;;;1.80;0.90;;;17.20;99.90;;;;;;4955674;28;20495;-84
2023/07/24 06:08:27;;;;;;;2.08;1.10;;;17.30;99.90;;;;;;4985692;28;20030;-86
2023/07/24 06:10:53;;;;;;;1.92;0.90;;;17.30;99.90;;;;;;4986339;28;20130;-82
2023/07/24 06:13:19;;;;;;;1.95;1.15;;;17.30;99.90;;;;;;4975048;28;20081;-85
2023/07/24 06:15:48;;;;;;;2.28;1.45;;;17.40;99.90;;;;;;4971269;28;20538;-86
2023/07/24 06:18:14;;;;;;;3.10;1.80;;;17.40;99.90;;;;;;4988462;28;20109;-85
2023/07/24 06:20:39;;;;;;;1.90;1.20;;;17.40;99.90;;;;;;4964776;28;20715;-86
2023/07/24 06:23:05;;;;;;;3.47;1.58;;;17.50;99.90;;;;;;4972943;28;20050;-83
2023/07/24 06:25:32;;;;;;;2.47;2.00;;;17.50;99.90;;;;;;4985910;28;20038;-78
2023/07/24 06:27:57;;;;;;;4.10;3.25;;;17.50;99.90;;;;;;4979249;28;20117;-84
2023/07/24 06:30:23;;;;;;;4.10;3.03;;;17.50;99.90;;;;;;4952916;28;20228;-85
2023/07/24 06:32:49;;;;;;;3.22;2.40;;;17.50;99.90;;;;;;4971051;28;20060;-85
2023/07/24 06:35:15;;;;;;;2.88;1.90;;;17.60;99.90;;;;;;4955221;28;20042;-82
2023/07/24 06:37:40;;;;;;;3.70;2.97;;;17.70;99.90;;;;;;4974844;28;20035;-83
2023/07/24 06:40:07;;;;;;;4.25;3.33;;;17.60;99.90;;;;;;4970116;28;20049;-79
2023/07/24 06:42:33;;;;;;;4.28;3.30;;;17.60;99.90;;;;;;4972220;28;20042;-86
2023/07/24 06:44:59;;;;;;;4.45;3.58;;;17.80;99.90;;;;;;4952838;28;20042;-84
2023/07/24 06:47:24;;;;;;;3.45;2.92;;;17.70;99.90;;;;;;4967291;28;20027;-85
2023/07/24 06:49:50;;;;;;;3.03;2.42;;;17.80;99.90;;;;;;4955511;28;20039;-84
2023/07/24 06:52:16;;;;;;;3.33;3.00;;;17.90;99.90;;;;;;4955870;28;20093;-85
2023/07/24 06:54:42;;;;;;;2.53;1.88;;;17.90;99.90;;;;;;4973067;28;20534;-84
2023/07/24 06:57:07;;;;;;;4.22;3.45;;;18.00;99.90;;;;;;4970211;28;20038;-86
2023/07/24 06:59:33;;;;;;;4.18;3.25;;;18.00;99.90;;;;;;4964875;28;20053;-78
2023/07/24 07:01:59;;;;;;;5.05;3.70;;;18.10;99.90;;;;;;4969461;28;20053;-86
2023/07/24 07:04:24;;;;;;;4.63;3.03;;;18.00;99.90;;;;;;4954091;28;20031;-83
2023/07/24 07:06:50;;;;;;;4.80;3.03;;;18.10;99.90;;;;;;4972163;28;20270;-84
2023/07/24 07:09:16;;;;;;;3.88;3.28;;;18.20;99.90;;;;;;4984692;28;20478;-86
2023/07/24 07:11:43;;;;;;;3.55;3.03;;;18.20;99.90;;;;;;4971671;28;20544;-84
2023/07/24 07:14:09;;;;;;;4.88;3.72;;;18.40;99.90;;;;;;4985307;28;20046;-79
2023/07/24 07:16:35;;;;;;;4.55;4.13;;;18.40;99.90;;;;;;4969616;28;20034;-84
2023/07/24 07:19:01;;;;;;;5.53;4.75;;;18.30;99.90;;;;;;4952066;28;20034;-84
2023/07/24 07:21:26;;;;;;;4.47;4.07;;;18.40;99.90;;;;;;4968826;28;20030;-84
2023/07/24 07:23:52;;;;;;;5.53;5.00;;;18.50;99.90;;;;;;4970618;28;20042;-81
2023/07/24 07:26:18;;;;;;;4.45;3.85;;;18.40;99.90;;;;;;4971223;28;20483;-85
2023/07/24 07:28:44;;;;;;;7.13;4.68;;;18.80;99.90;;;;;;4958972;28;20047;-78
2023/07/24 07:31:10;;;;;;;5.10;4.07;;;18.90;99.90;;;;;;4940764;28;20499;-82
2023/07/24 07:33:36;;;;;;;7.95;6.55;;;19.10;99.90;;;;;;4960019;28;20048;-79
2023/07/24 07:36:03;;;;;;;5.43;4.55;;;19.00;99.90;;;;;;4940795;28;20050;-82
2023/07/24 07:38:29;;;;;;;5.35;4.63;;;19.20;99.90;;;;;;4955359;28;20154;-79
2023/07/24 07:40:55;;;;;;;7.20;6.40;;;19.10;99.90;;;;;;4955618;28;20050;-81
2023/07/24 07:43:21;;;;;;;6.78;4.55;;;19.00;99.90;;;;;;4975337;28;20054;-80
2023/07/24 07:45:47;;;;;;;6.88;6.05;;;19.30;99.90;;;;;;4975779;28;20077;-80
2023/07/24 07:48:13;;;;;;;6.45;5.68;;;19.30;99.90;;;;;;4954709;28;20038;-78
2023/07/24 07:50:39;;;;;;;7.18;6.07;;;19.10;99.90;;;;;;4975056;28;20042;-83
2023/07/24 07:53:05;;;;;;;6.28;4.88;;;18.90;99.90;;;;;;4975812;28;20057;-79
2023/07/24 07:55:30;;;;;;;5.70;5.10;;;19.10;99.90;;;;;;4965062;28;20049;-82
2023/07/24 07:57:56;;;;;;;7.28;6.53;;;19.10;99.90;;;;;;4985478;28;20089;-83
2023/07/24 08:00:22;;;;;;;6.25;5.65;;;19.00;99.90;;;;;;4967875;28;20038;-77
2023/07/24 08:02:48;;;;;;;9.05;7.45;;;18.90;99.90;;;;;;4953147;28;20045;-84
2023/07/24 08:05:14;;;;;;;8.85;8.02;;;18.90;99.90;;;;;;4965817;28;20081;-79
2023/07/24 08:07:39;;;;;;;8.27;7.20;;;18.70;99.90;;;;;;4984757;28;20118;-83
2023/07/24 08:10:06;;;;;;;8.95;7.07;;;19.00;99.90;;;;;;4981412;28;20057;-81
2023/07/24 08:12:32;;;;;;;7.60;6.90;;;19.00;99.90;;;;;;4983596;28;20216;-82
2023/07/24 08:14:57;;;;;;;7.93;5.93;;;19.30;99.90;;;;;;4968636;28;20046;-81
2023/07/24 08:17:23;;;;;;;9.35;8.18;;;19.60;99.90;;;;;;4950137;28;20041;-82
2023/07/24 08:19:49;;;;;;;7.97;6.88;;;19.30;99.90;;;;;;4964082;28;20561;-80
2023/07/24 08:22:15;;;;;;;6.97;6.28;;;19.50;99.90;;;;;;4965964;28;20501;-83
2023/07/24 08:24:40;;;;;;;8.00;7.10;;;19.50;99.90;;;;;;4952507;28;20030;-82
2023/07/24 08:27:06;;;;;;;6.47;5.50;;;19.30;99.90;;;;;;4983260;28;20046;-82
2023/07/24 08:29:33;;;;;;;5.68;4.65;;;19.00;99.90;;;;;;4982062;28;20491;-86
2023/07/24 08:31:58;;;;;;;7.55;6.10;;;18.90;99.90;;;;;;4953518;28;20521;-84
2023/07/24 08:34:25;;;;;;;7.70;6.25;;;18.70;99.90;;;;;;4974897;28;20069;-79
2023/07/24 08:36:50;;;;;;;6.82;6.13;;;18.80;99.90;;;;;;4984032;28;20042;-83
2023/07/24 08:39:16;;;;;;;6.70;6.10;;;18.80;99.90;;;;;;4983917;28;20042;-79
2023/07/24 08:41:42;;;;;;;9.98;8.25;;;18.80;99.90;;;;;;4968596;28;20045;-84
2023/07/24 08:44:08;;;;;;;7.63;6.88;;;18.70;99.90;;;;;;4985115;28;20534;-84
2023/07/24 08:46:38;;;;;;;9.13;6.90;;;18.90;99.90;;;;;;4983590;28;20058;-84
2023/07/24 08:49:04;;;;;;;9.43;7.55;;;18.90;99.90;;;;;;4984421;28;20039;-83
2023/07/24 08:51:31;;;;;;;7.75;6.95;;;19.10;99.90;;;;;;4947592;28;20039;-81
2023/07/24 08:53:57;;;;;;;8.88;6.78;;;19.10;99.90;;;;;;4950875;28;20066;-83
2023/07/24 08:56:23;;;;;;;7.93;6.63;;;19.20;99.90;;;;;;4969618;28;20043;-85
2023/07/24 08:58:49;;;;;;;7.57;6.82;;;19.10;99.90;;;;;;4969600;28;20042;-83
2023/07/24 09:01:14;;;;;;;10.43;8.00;;;19.30;99.90;;;;;;4966483;28;20521;-83
2023/07/24 09:03:40;;;;;;;8.25;7.43;;;19.60;99.90;;;;;;4972633;28;20034;-83
2023/07/24 09:06:10;;;;;;;7.78;7.03;;;20.20;99.90;;;;;;4972814;28;20495;-82
2023/07/24 09:08:38;;;;;;;7.57;6.68;;;20.50;99.90;;;;;;4969039;28;20073;-84
2023/07/24 09:11:05;;;;;;;8.77;7.40;;;20.40;99.90;;;;;;4956177;28;20051;-83
2023/07/24 09:13:31;;;;;;;7.32;5.90;;;20.00;99.90;;;;;;4986809;28;20034;-79
2023/07/24 09:15:57;;;;;;;5.43;4.38;;;19.50;99.90;;;;;;4955499;28;20046;-82
2023/07/24 09:18:23;;;;;;;5.05;4.25;;;19.50;99.90;;;;;;4969383;28;20349;-84
2023/07/24 09:20:49;;;;;;;4.47;4.03;;;20.10;99.90;;;;;;4978532;28;20045;-84
2023/07/24 09:23:15;;;;;;;5.35;4.25;;;20.00;99.90;;;;;;4972122;28;20521;-81
2023/07/24 09:25:43;;;;;;;4.57;3.95;;;19.80;99.90;;;;;;4970857;28;20483;-84
2023/07/24 09:28:14;;;;;;;4.97;4.55;;;19.60;99.90;;;;;;4972099;28;20450;-81
2023/07/24 09:30:41;;;;;;;4.18;3.72;;;19.30;99.90;;;;;;4952605;28;20034;-82
2023/07/24 09:33:07;;;;;;;4.65;3.60;;;19.30;99.90;;;;;;4956266;28;20125;-82
2023/07/24 09:35:33;;;;;;;6.40;4.15;;;19.40;99.90;;;;;;4986683;28;20080;-82
2023/07/24 09:38:18;;;;;;;4.53;4.00;;;19.20;99.90;;;;;;4970388;28;20285;-81
2023/07/24 09:40:46;;;;;;;4.68;3.28;;;19.60;99.90;;;;;;4967650;28;20039;-82
2023/07/24 09:43:20;;;;;;;6.07;3.00;;;20.00;99.90;;;;;;4988379;28;20042;-83
2023/07/24 09:45:48;;;;;;;3.65;2.88;;;20.50;99.90;;;;;;4973700;28;20034;-82
2023/07/24 09:48:15;;;;;;;4.15;2.92;;;21.00;99.90;;;;;;4973061;28;20113;-82
2023/07/24 09:50:42;;;;;;;3.92;2.80;;;20.90;99.90;;;;;;4972227;28;20090;-82
2023/07/24 09:53:19;;;;;;;3.53;2.53;;;21.00;99.90;;;;;;4955265;28;20046;-84
2023/07/24 09:56:06;;;;;;;3.38;2.92;;;21.00;99.90;;;;;;4984703;28;20043;-83
2023/07/24 09:58:34;;;;;;;4.05;3.65;;;21.10;99.90;;;;;;4967485;28;20394;-82
2023/07/24 10:01:07;;;;;;;4.35;2.50;;;20.40;99.90;;;;;;4968951;28;20111;-83
2023/07/24 10:04:00;;;;;;;6.50;4.00;;;20.50;99.90;;;;;;4985406;28;20429;-82
2023/07/24 10:06:29;;;;;;;3.40;2.40;;;20.10;99.90;;;;;;4968959;28;20058;-82
2023/07/24 10:08:55;;;;;;;3.65;2.72;;;20.60;99.90;;;;;;4982999;28;20038;-80
2023/07/24 10:11:21;;;;;;;2.63;2.30;;;20.60;99.90;;;;;;4972047;28;20143;-83
2023/07/24 10:13:47;;;;;;;3.00;2.38;;;20.50;99.90;;;;;;4967474;28;20506;-84
2023/07/24 10:16:13;;;;;;;7.18;3.38;;;20.90;99.90;;;;;;4986215;28;20057;-83
2023/07/24 10:18:46;;;;;;;3.78;2.92;;;20.70;99.90;;;;;;4968599;28;20031;-86
2023/07/24 10:21:12;;;;;;;3.00;2.10;;;20.80;99.90;;;;;;4956406;28;20129;-84
2023/07/24 10:23:43;;;;;;;2.75;1.88;;;20.90;99.90;;;;;;4975354;28;20394;-83
2023/07/24 10:26:09;;;;;;;2.55;2.03;;;20.60;99.90;;;;;;4978787;28;20509;-83
2023/07/24 10:28:40;;;;;;;2.70;1.58;;;20.70;99.90;;;;;;4956783;28;20121;-85
2023/07/24 10:31:29;;;;;;;3.03;2.03;;;20.70;99.90;;;;;;4980399;28;20039;-83
2023/07/24 10:33:56;;;;;;;3.97;2.38;;;20.60;99.90;;;;;;4967952;28;20050;-85
2023/07/24 10:36:23;;;;;;;2.60;1.70;;;20.70;99.90;;;;;;4984392;28;20074;-82
2023/07/24 10:38:56;;;;;;;2.55;1.67;;;20.90;99.90;;;;;;4956225;28;20030;-85
2023/07/24 10:41:22;;;;;;;3.65;2.75;;;21.10;99.90;;;;;;4970593;28;20035;-84
2023/07/24 10:43:52;;;;;;;2.92;1.40;;;20.80;99.90;;;;;;4976212;28;20034;-79
2023/07/24 10:46:19;;;;;;;4.22;2.72;;;20.80;99.90;;;;;;4970675;28;20479;-82
2023/07/24 10:48:47;;;;;;;3.85;2.35;;;20.60;99.90;;;;;;4963798;28;20082;-84
2023/07/24 10:51:16;;;;;;;4.25;2.95;;;20.50;99.90;;;;;;4954999;28;20507;-84
2023/07/24 10:53:47;;;;;;;3.08;2.40;;;20.00;99.90;;;;;;4971262;28;20038;-84
2023/07/24 10:56:15;;;;;;;2.72;1.85;;;20.10;99.90;;;;;;4987716;28;20415;-83
2023/07/24 10:58:44;;;;;;;3.08;1.65;;;20.00;99.90;;;;;;4968857;28;20032;-83
2023/07/24 11:01:14;;;;;;;4.13;2.58;;;19.90;99.90;;;;;;4987999;28;20117;-83
2023/07/24 11:03:40;;;;;;;;;;;19.80;99.90;;;;;;4987016;28;20053;-83
2023/07/24 11:06:16;;;;;;;4.63;2.50;;;19.90;99.90;;;;;;4985312;28;19918;-84
2023/07/24 11:08:42;;;;;;;4.85;2.38;;;19.80;99.90;;;;;;4965482;28;20061;-83
2023/07/24 11:11:08;;;;;;;2.05;1.13;;;20.10;99.90;;;;;;4982997;28;20030;-84
2023/07/24 11:13:34;;;;;;;2.00;1.52;;;20.20;99.90;;;;;;4986898;28;20535;-84
2023/07/24 11:16:07;;;;;;;3.10;1.90;;;20.10;99.90;;;;;;4986207;28;20038;-84
2023/07/24 11:18:45;;;;;;;2.85;1.77;;;20.00;99.90;;;;;;4965875;28;20040;-84
2023/07/24 11:21:12;;;;;;;3.28;2.97;;;19.90;99.90;;;;;;4967845;28;20042;-83
2023/07/24 11:23:44;;;;;;;4.50;4.03;;;19.70;99.90;;;;;;4970366;28;20538;-82
2023/07/24 11:26:09;;;;;;;4.40;4.00;;;19.40;99.90;;;;;;4965918;28;20367;-79
2023/07/24 11:28:40;;;;;;;3.33;3.03;;;19.20;99.90;;;;;;4970422;28;20038;-81
2023/07/24 11:31:06;;;;;;;4.47;4.07;;;19.50;99.90;;;;;;4966183;28;20043;-82
2023/07/24 11:33:32;;;;;;;5.25;4.10;;;19.40;99.90;;;;;;4983085;28;20506;-82
2023/07/24 11:35:58;;;;;;;3.80;3.40;;;19.60;99.90;;;;;;4953792;28;20387;-83
2023/07/24 11:38:24;;;;;;;3.17;2.90;;;20.30;99.90;;;;;;4971103;28;20042;-81
2023/07/24 11:40:50;;;;;;;3.35;3.05;;;20.90;99.90;;;;;;4954553;28;20046;-84
2023/07/24 11:43:26;;;;;;;5.18;3.42;;;21.10;99.90;;;;;;4952363;28;20030;-82
2023/07/24 11:45:53;;;;;;;3.30;2.30;;;21.10;99.90;;;;;;4965579;28;20046;-84
2023/07/24 11:48:20;;;;;;;4.90;3.20;;;21.10;99.90;;;;;;4967630;28;20042;-84
2023/07/24 11:50:47;;;;;;;4.55;3.63;;;20.40;99.90;;;;;;4970427;28;20038;-83
2023/07/24 11:53:28;;;;;;;4.30;3.90;;;20.20;99.90;;;;;;4953640;28;20086;-83
2023/07/24 11:55:58;;;;;;;5.07;2.90;;;20.20;99.90;;;;;;4961928;28;20038;-80
2023/07/24 11:58:28;;;;;;;4.22;3.72;;;20.60;99.90;;;;;;4976738;28;20038;-83
2023/07/24 12:00:54;;;;;;;4.97;3.50;;;20.30;99.90;;;;;;4960947;28;20030;-84
2023/07/24 12:03:29;;;;;;;5.20;3.90;;;20.80;99.90;;;;;;4959700;28;20074;-83
2023/07/24 12:05:56;;;;;;;6.20;3.45;;;21.30;99.90;;;;;;4945562;28;20077;-82
2023/07/24 12:08:31;;;;;;;5.18;3.45;;;21.20;99.90;;;;;;4975967;28;22516;-83
2023/07/24 12:10:57;;;;;;;4.10;2.15;;;20.90;99.90;;;;;;4959350;28;20137;-83
2023/07/24 12:13:23;;;;;;;3.83;3.17;;;21.40;99.90;;;;;;4960212;28;20506;-82
2023/07/24 12:15:49;;;;;;;4.35;3.55;;;21.00;99.90;;;;;;4960688;28;20073;-82
2023/07/24 12:18:15;;;;;;;4.95;3.10;;;20.90;99.90;;;;;;4945313;28;20042;-83
2023/07/24 12:20:41;;;;;;;5.45;4.88;;;21.30;99.90;;;;;;4957624;28;20046;-82
2023/07/24 12:23:06;;;;;;;5.20;4.03;;;20.80;99.90;;;;;;4965605;28;20066;-83
2023/07/24 12:25:32;;;;;;;6.28;4.60;;;20.70;99.90;;;;;;4965161;28;20100;-82
2023/07/24 12:27:58;;;;;;;6.43;4.50;;;20.60;99.90;;;;;;4960251;28;20507;-83
2023/07/24 12:30:23;;;;;;;6.43;3.35;;;20.50;99.90;;;;;;4977739;28;20027;-84
2023/07/24 12:32:49;;;;;;;4.38;3.20;;;20.20;99.90;;;;;;4961249;28;20086;-82
2023/07/24 12:35:17;;;;;;;4.45;2.95;;;20.70;99.90;;;;;;4965689;28;20064;-84
2023/07/24 12:37:43;;;;;;;4.78;3.08;;;20.60;99.90;;;;;;4955045;28;20447;-82
2023/07/24 12:40:09;;;;;;;4.68;3.55;;;20.60;99.90;;;;;;4947910;28;20138;-82
2023/07/24 12:42:35;;;;;;;7.25;4.35;;;20.30;99.90;;;;;;4955630;28;20038;-83
2023/07/24 12:45:04;;;;;;;4.47;3.45;;;20.30;99.90;;;;;;4960967;28;20050;-81
2023/07/24 12:47:31;;;;;;;6.57;4.38;;;20.30;99.90;;;;;;4952797;28;20045;-82